Time;durP1;ratioP1;P1;durP2;ratioP2;P2;SDS_P1;SDS_P2;PMS_P1;PMS_P2;Temp;Humidity;BMP_temperature;BMP_pressure;BME280_temperature;BME280_humidity;BME280_pressure;Samples;Min_cycle;Max_cycle;Signal;HPM_P1;HPM_P2
2021/09/02 00:01:17;;;;;;;41.88;19.67;;;;;;;13.51;77.14;101549.53;5024994;28;20044;-63
2021/09/02 00:03:42;;;;;;;44.05;20.33;;;;;;;13.49;77.21;101568.66;5023662;28;20072;-63
2021/09/02 00:06:07;;;;;;;37.80;19.42;;;;;;;13.45;77.41;101566.91;5025019;28;20029;-64
2021/09/02 00:08:33;;;;;;;42.20;22.08;;;;;;;13.42;78.00;101572.16;5025161;28;20025;-64
2021/09/02 00:10:58;;;;;;;44.70;20.25;;;;;;;13.40;78.43;101574.75;5024758;28;20026;-63
2021/09/02 00:13:24;;;;;;;46.25;21.40;;;;;;;13.42;78.37;101564.31;5024576;28;20037;-64
2021/09/02 00:15:49;;;;;;;42.92;20.85;;;;;;;13.43;78.29;101566.03;5024757;28;20029;-64
2021/09/02 00:18:15;;;;;;;46.78;21.63;;;;;;;13.44;78.35;101567.78;5024703;28;20090;-63
2021/09/02 00:20:40;;;;;;;40.05;20.13;;;;;;;13.41;78.63;101568.66;5024499;28;20121;-63
2021/09/02 00:23:06;;;;;;;42.20;20.85;;;;;;;13.42;78.50;101569.53;5023190;28;20017;-64
2021/09/02 00:25:31;;;;;;;38.90;19.77;;;;;;;13.42;78.45;101566.94;5024554;28;20029;-64
2021/09/02 00:27:57;;;;;;;39.40;20.08;;;;;;;13.41;78.48;101567.78;5024466;28;20101;-64
2021/09/02 00:30:22;;;;;;;43.90;21.92;;;;;;;13.40;78.25;101572.16;5024477;28;20049;-64
2021/09/02 00:32:47;;;;;;;44.28;22.13;;;;;;;13.36;78.45;101567.78;5023028;28;20033;-64
2021/09/02 00:35:13;;;;;;;45.30;23.13;;;;;;;13.32;78.46;101569.53;5024394;28;20038;-64
2021/09/02 00:37:38;;;;;;;44.45;23.65;;;;;;;13.32;78.58;101563.47;5024451;28;20026;-64
2021/09/02 00:40:04;;;;;;;42.58;22.30;;;;;;;13.31;78.73;101567.78;5024445;28;20052;-65
2021/09/02 00:42:30;;;;;;;46.42;24.45;;;;;;;13.29;78.68;101561.69;5024077;28;20497;-65
2021/09/02 00:44:55;;;;;;;43.33;23.10;;;;;;;13.29;78.75;101564.31;5024073;28;20030;-65
2021/09/02 00:47:27;;;;;;;45.47;23.85;;;;;;;13.30;78.66;101565.19;5024116;28;20026;-64
2021/09/02 00:49:53;;;;;;;39.67;22.35;;;;;;;13.29;78.98;101559.09;5024227;28;20032;-64
2021/09/02 00:52:21;;;;;;;37.58;22.20;;;;;;;13.29;79.06;101556.50;5024102;28;20037;-64
2021/09/02 00:54:48;;;;;;;42.08;21.25;;;;;;;13.29;79.12;101558.25;5022942;28;20057;-63
2021/09/02 00:57:15;;;;;;;41.90;22.70;;;;;;;13.28;78.96;101559.97;5023728;28;20050;-64
2021/09/02 00:59:42;;;;;;;40.97;23.38;;;;;;;13.27;79.13;101566.91;5023876;28;20033;-63
2021/09/02 01:02:08;;;;;;;45.55;23.92;;;;;;;13.26;79.18;101564.31;5022631;28;20281;-65
2021/09/02 01:04:33;;;;;;;42.60;23.20;;;;;;;13.27;79.20;101563.47;5024102;28;20025;-64
2021/09/02 01:06:59;;;;;;;42.72;21.25;;;;;;;13.27;79.06;101563.47;5023833;28;20025;-65
2021/09/02 01:09:26;;;;;;;34.22;19.42;;;;;;;13.27;79.33;101563.47;5023848;28;20295;-63
2021/09/02 01:11:52;;;;;;;33.28;19.83;;;;;;;13.25;79.51;101573.03;5022330;28;20018;-64
2021/09/02 01:14:19;;;;;;;40.95;20.65;;;;;;;13.23;79.42;101557.38;5023717;28;20401;-68
2021/09/02 01:16:47;;;;;;;33.60;18.58;;;;;;;13.22;79.67;101562.59;5023835;28;20037;-63
2021/09/02 01:19:15;;;;;;;35.20;17.15;;;;;;;13.23;79.54;101569.53;5023457;28;20072;-65
2021/09/02 01:21:41;;;;;;;31.35;16.73;;;;;;;13.22;79.57;101568.69;5022345;28;20022;-65
2021/09/02 01:24:07;;;;;;;37.30;17.95;;;;;;;13.23;79.80;101564.31;5023697;28;20033;-64
2021/09/02 01:26:32;;;;;;;35.17;18.08;;;;;;;13.22;79.66;101563.47;5023681;28;20030;-64
2021/09/02 01:28:58;;;;;;;36.00;19.58;;;;;;;13.22;79.79;101568.69;5023399;28;20041;-63
2021/09/02 01:31:23;;;;;;;41.08;20.60;;;;;;;13.19;79.67;101568.69;5023835;28;20053;-63
2021/09/02 01:33:49;;;;;;;41.95;20.58;;;;;;;13.16;79.65;101570.44;5023396;28;20037;-63
2021/09/02 01:36:15;;;;;;;44.00;21.83;;;;;;;13.11;79.79;101576.53;5023613;28;20049;-64
2021/09/02 01:38:42;;;;;;;42.30;22.45;;;;;;;13.08;79.78;101579.09;5023364;28;20026;-64
2021/09/02 01:41:07;;;;;;;42.20;21.33;;;;;;;13.05;79.68;101586.06;5023336;28;20076;-63
2021/09/02 01:43:32;;;;;;;50.60;23.05;;;;;;;13.04;79.68;101589.53;5023550;28;20021;-64
2021/09/02 01:45:58;;;;;;;39.55;22.58;;;;;;;13.00;79.50;101581.72;5023379;28;20033;-64
2021/09/02 01:48:23;;;;;;;42.28;22.20;;;;;;;12.98;79.46;101582.59;5023548;28;20025;-64
2021/09/02 01:50:48;;;;;;;35.13;20.15;;;;;;;12.93;79.59;101586.91;5023408;28;20395;-64
2021/09/02 01:53:15;;;;;;;37.42;19.42;;;;;;;12.88;79.91;101586.91;5022068;28;20060;-64
2021/09/02 01:55:42;;;;;;;34.03;18.48;;;;;;;12.87;80.09;101582.59;5027621;28;20175;-64
2021/09/02 01:58:08;;;;;;;38.97;20.40;;;;;;;12.83;80.42;101586.91;5027174;28;20046;-64
2021/09/02 02:00:35;;;;;;;34.67;18.63;;;;;;;12.82;80.27;101587.78;5027318;28;20080;-64
2021/09/02 02:03:00;;;;;;;29.23;16.83;;;;;;;12.82;80.40;101587.78;5027236;28;20046;-64
2021/09/02 02:05:26;;;;;;;32.95;16.08;;;;;;;12.84;80.24;101580.81;5027334;28;20029;-64
2021/09/02 02:07:52;;;;;;;35.25;17.00;;;;;;;12.86;80.22;101576.50;5027201;28;20045;-64
2021/09/02 02:10:22;;;;;;;28.13;16.27;;;;;;;12.88;79.97;101579.09;5027126;28;20034;-64
2021/09/02 02:12:47;;;;;;;31.63;17.83;;;;;;;12.87;79.75;101583.47;5027101;28;20017;-64
2021/09/02 02:15:13;;;;;;;28.77;16.98;;;;;;;12.86;79.84;101580.84;5027130;28;20103;-64
2021/09/02 02:17:39;;;;;;;28.48;16.38;;;;;;;12.87;79.87;101579.97;5027078;28;20031;-65
2021/09/02 02:20:05;;;;;;;27.25;16.13;;;;;;;12.87;79.87;101583.47;5027145;28;20026;-65
2021/09/02 02:22:31;;;;;;;28.55;16.48;;;;;;;12.87;79.96;101585.19;5027106;28;20128;-64
2021/09/02 02:24:56;;;;;;;25.75;14.88;;;;;;;12.82;79.42;101585.19;5027230;28;20022;-64
2021/09/02 02:27:22;;;;;;;25.60;14.68;;;;;;;12.81;79.75;101583.44;5026897;28;20101;-65
2021/09/02 02:29:47;;;;;;;27.48;15.55;;;;;;;12.79;79.19;101573.88;5026728;28;20030;-65
2021/09/02 02:32:13;;;;;;;47.65;20.63;;;;;;;12.72;79.11;101591.22;5026720;28;20022;-63
2021/09/02 02:34:38;;;;;;;31.55;17.50;;;;;;;12.67;78.90;101579.97;5027080;28;20026;-63
2021/09/02 02:37:04;;;;;;;39.97;21.98;;;;;;;12.63;78.86;101584.28;5026751;28;20033;-64
2021/09/02 02:39:30;;;;;;;34.72;17.95;;;;;;;12.56;78.66;101586.00;5026434;28;20032;-65
2021/09/02 02:41:55;;;;;;;32.47;16.67;;;;;;;12.55;78.86;101588.59;5026727;28;20033;-65
2021/09/02 02:44:21;;;;;;;34.75;17.58;;;;;;;12.50;78.78;101584.25;5026292;28;20428;-65
2021/09/02 02:46:46;;;;;;;30.15;15.80;;;;;;;12.46;78.78;101579.91;5026648;28;20036;-65
2021/09/02 02:49:11;;;;;;;33.85;17.35;;;;;;;12.47;79.12;101580.78;5026480;28;20025;-65
2021/09/02 02:51:37;;;;;;;33.63;16.90;;;;;;;12.46;79.02;101579.91;5026522;28;20045;-64
2021/09/02 02:54:02;;;;;;;33.47;17.17;;;;;;;12.45;79.09;101575.56;5026415;28;20106;-64
2021/09/02 02:56:28;;;;;;;40.03;18.40;;;;;;;12.42;78.93;101567.75;5026148;28;20028;-64
2021/09/02 02:58:53;;;;;;;37.42;17.77;;;;;;;12.41;79.05;101570.34;5025942;28;20529;-64
2021/09/02 03:01:19;;;;;;;37.97;18.25;;;;;;;12.36;78.97;101575.53;5024875;28;20063;-63
2021/09/02 03:03:44;;;;;;;30.80;15.40;;;;;;;12.27;79.17;101573.75;5026183;28;20029;-64
2021/09/02 03:06:12;;;;;;;30.73;15.80;;;;;;;12.22;79.06;101578.09;5024840;28;20021;-64
2021/09/02 03:08:37;;;;;;;31.55;15.70;;;;;;;12.18;78.94;101576.34;5026072;28;20069;-64
2021/09/02 03:11:02;;;;;;;28.58;14.43;;;;;;;12.13;79.12;101569.41;5024568;28;20022;-63
2021/09/02 03:13:28;;;;;;;27.58;13.70;;;;;;;12.06;79.36;101562.38;5025906;28;20093;-63
2021/09/02 03:15:53;;;;;;;24.92;14.13;;;;;;;12.03;79.29;101570.16;5026027;28;20073;-63
2021/09/02 03:21:40;;;;;;;24.80;13.55;;;;;;;11.94;79.22;101563.19;5026115;28;20048;-64
2021/09/02 03:24:06;;;;;;;29.35;15.13;;;;;;;11.96;79.58;101565.81;5025759;28;20021;-64
2021/09/02 03:26:31;;;;;;;29.30;16.33;;;;;;;12.00;79.82;101571.03;5025558;28;20106;-64
2021/09/02 03:28:56;;;;;;;28.95;15.75;;;;;;;12.06;79.89;101570.19;5025319;28;20026;-64
2021/09/02 03:31:22;;;;;;;32.55;16.05;;;;;;;12.14;79.71;101576.31;5025655;28;20017;-64
2021/09/02 03:33:47;;;;;;;33.50;15.68;;;;;;;12.20;79.48;101574.63;5025644;28;20036;-63
2021/09/02 03:36:12;;;;;;;28.92;15.40;;;;;;;12.24;79.44;101579.84;5025316;28;20579;-63
2021/09/02 03:38:38;;;;;;;29.52;15.88;;;;;;;12.27;79.34;101579.84;5025440;28;20057;-64
2021/09/02 03:41:03;;;;;;;31.60;16.00;;;;;;;12.33;79.43;101578.97;5025093;28;20026;-64
2021/09/02 03:43:29;;;;;;;27.60;15.13;;;;;;;12.39;79.33;101584.25;5025272;28;20265;-64
2021/09/02 03:45:54;;;;;;;25.85;14.48;;;;;;;12.43;79.29;101592.91;5025193;28;20105;-64
2021/09/02 03:48:19;;;;;;;27.25;16.13;;;;;;;12.47;79.60;101591.19;5025262;28;20105;-64
2021/09/02 03:50:45;;;;;;;27.67;15.95;;;;;;;12.52;79.50;101589.47;5025366;28;20022;-64
2021/09/02 03:53:10;;;;;;;25.15;14.88;;;;;;;12.50;79.45;101586.00;5025022;28;20025;-64
2021/09/02 03:55:36;;;;;;;25.90;14.43;;;;;;;12.61;79.22;101586.88;5024956;28;20412;-64
2021/09/02 03:58:01;;;;;;;31.00;15.60;;;;;;;12.60;79.22;101579.91;5024489;28;20066;-64
2021/09/02 04:00:26;;;;;;;29.13;15.23;;;;;;;12.70;79.04;101586.03;5025012;28;20028;-64
2021/09/02 04:02:52;;;;;;;23.88;14.60;;;;;;;12.75;78.90;101591.25;5024931;28;20053;-64
2021/09/02 04:05:17;;;;;;;26.75;15.27;;;;;;;12.79;78.94;101592.13;5024863;28;20029;-65
2021/09/02 04:07:42;;;;;;;31.90;16.50;;;;;;;12.82;78.77;101598.22;5023528;28;20022;-64
2021/09/02 04:10:08;;;;;;;27.48;16.45;;;;;;;12.86;78.88;101596.50;5024840;28;20393;-63
2021/09/02 04:12:34;;;;;;;25.52;13.85;;;;;;;12.87;78.74;101601.72;5024595;28;20026;-65
2021/09/02 04:14:59;;;;;;;21.95;13.73;;;;;;;12.87;78.58;101598.22;5024655;28;20033;-64
2021/09/02 04:17:24;;;;;;;22.73;13.30;;;;;;;12.88;78.60;101593.00;5024232;28;20083;-64
2021/09/02 04:19:50;;;;;;;26.88;13.73;;;;;;;12.88;78.53;101586.91;5024487;28;20044;-63
2021/09/02 04:22:16;;;;;;;22.90;13.75;;;;;;;12.92;78.54;101600.84;5024319;28;20454;-63
2021/09/02 04:24:41;;;;;;;24.77;13.80;;;;;;;12.98;78.71;101596.50;5024538;28;20045;-63
2021/09/02 04:27:08;;;;;;;24.83;13.85;;;;;;;13.15;78.96;101603.44;5024516;28;20085;-64
2021/09/02 04:29:33;;;;;;;19.27;12.15;;;;;;;13.32;78.98;101606.03;5024328;28;20022;-64
2021/09/02 04:31:59;;;;;;;16.52;10.75;;;;;;;13.45;78.52;101614.72;5024206;28;20088;-63
2021/09/02 04:34:24;;;;;;;21.65;11.38;;;;;;;13.47;78.10;101612.13;5024369;28;20018;-64
2021/09/02 04:36:49;;;;;;;20.25;10.50;;;;;;;13.45;78.05;101611.28;5023814;28;20117;-65
2021/09/02 04:39:15;;;;;;;18.23;10.95;;;;;;;13.45;77.68;101611.28;5024221;28;20037;-64
2021/09/02 04:41:41;;;;;;;17.45;10.32;;;;;;;13.44;77.43;101617.34;5024113;28;20029;-65
2021/09/02 04:44:06;;;;;;;16.15;9.70;;;;;;;13.47;77.34;101620.81;5024137;28;20029;-63
2021/09/02 04:46:31;;;;;;;13.07;8.90;;;;;;;13.50;77.07;101618.25;5024310;28;20072;-64
2021/09/02 04:48:57;;;;;;;13.50;9.50;;;;;;;13.46;77.06;101613.00;5024351;28;20025;-64
2021/09/02 04:51:22;;;;;;;16.92;9.40;;;;;;;13.48;76.99;101617.31;5022904;28;20076;-63
2021/09/02 04:53:47;;;;;;;18.80;11.13;;;;;;;13.50;76.67;101606.88;5024148;28;20049;-64
2021/09/02 04:56:13;;;;;;;19.13;10.18;;;;;;;13.51;76.39;101613.91;5024093;28;20029;-64
2021/09/02 04:58:38;;;;;;;20.00;11.68;;;;;;;13.50;76.14;101614.72;5023905;28;20046;-64
2021/09/02 05:01:04;;;;;;;19.13;10.55;;;;;;;13.48;76.24;101613.88;5023930;28;20081;-64
2021/09/02 05:03:30;;;;;;;17.45;10.80;;;;;;;13.42;76.10;101609.50;5024151;28;20458;-63
2021/09/02 05:05:55;;;;;;;19.10;10.93;;;;;;;13.41;75.90;101618.22;5023904;28;20029;-64
2021/09/02 05:08:22;;;;;;;19.67;10.48;;;;;;;13.43;76.01;101613.00;5024257;28;20093;-65
2021/09/02 05:10:48;;;;;;;17.58;10.65;;;;;;;13.47;76.03;101606.91;5024189;28;20014;-64
2021/09/02 05:13:13;;;;;;;16.95;9.90;;;;;;;13.56;75.76;101611.28;5024089;28;20033;-64
2021/09/02 05:15:38;;;;;;;17.77;9.90;;;;;;;13.58;75.35;101607.78;5023774;28;20033;-65
2021/09/02 05:18:04;;;;;;;13.55;8.48;;;;;;;13.60;75.52;101608.66;5023829;28;20018;-65
2021/09/02 05:20:29;;;;;;;14.43;8.63;;;;;;;13.65;74.91;101602.56;5023888;28;20043;-65
2021/09/02 05:22:54;;;;;;;15.90;9.55;;;;;;;13.66;74.99;101610.38;5023759;28;20026;-65
2021/09/02 05:25:20;;;;;;;13.63;8.45;;;;;;;13.69;74.90;101615.59;5023721;28;20026;-64
2021/09/02 05:27:45;;;;;;;11.63;7.97;;;;;;;13.75;74.30;101605.13;5023146;28;20021;-64
2021/09/02 05:30:13;;;;;;;13.45;8.65;;;;;;;13.80;74.40;101607.72;5023020;28;20064;-65
2021/09/02 05:32:39;;;;;;;9.77;6.32;;;;;;;13.89;74.08;101606.84;5022592;28;20109;-65
2021/09/02 05:35:05;;;;;;;11.90;7.40;;;;;;;14.01;74.06;101613.75;5023542;28;20195;-65
2021/09/02 05:37:30;;;;;;;21.98;8.63;;;;;;;14.12;73.83;101619.81;5023370;28;20029;-65
2021/09/02 05:39:56;;;;;;;11.48;7.65;;;;;;;14.28;73.41;101626.75;5023561;28;20030;-65
2021/09/02 05:42:21;;;;;;;13.35;7.65;;;;;;;14.36;73.30;101614.50;5023428;28;20453;-65
2021/09/02 05:44:46;;;;;;;15.43;7.75;;;;;;;14.49;72.92;101625.75;5023253;28;20014;-65
2021/09/02 05:47:12;;;;;;;14.77;7.95;;;;;;;14.59;72.60;101621.34;5023490;28;20030;-65
2021/09/02 05:49:37;;;;;;;11.27;8.02;;;;;;;14.68;72.49;101626.50;5023172;28;20025;-65
2021/09/02 05:52:03;;;;;;;10.80;7.20;;;;;;;14.73;72.52;101626.47;5021931;28;20064;-65
2021/09/02 05:54:28;;;;;;;10.77;7.45;;;;;;;14.83;72.25;101628.22;5023435;28;20030;-64
2021/09/02 05:56:54;;;;;;;11.82;6.95;;;;;;;14.92;71.98;101627.25;5023278;28;20061;-65
2021/09/02 05:59:19;;;;;;;10.85;6.90;;;;;;;15.02;71.81;101635.91;5023249;28;20114;-65
2021/09/02 06:01:44;;;;;;;13.45;7.63;;;;;;;15.10;71.81;101631.50;5023457;28;20025;-65
2021/09/02 06:04:10;;;;;;;15.32;8.88;;;;;;;15.15;71.34;101631.47;5021993;28;20394;-65
2021/09/02 06:06:35;;;;;;;14.93;7.90;;;;;;;15.21;71.45;101630.53;5023210;28;20037;-65
2021/09/02 06:09:01;;;;;;;20.10;9.07;;;;;;;15.25;71.46;101629.66;5023123;28;20041;-67
2021/09/02 06:11:26;;;;;;;12.05;7.43;;;;;;;15.30;71.61;101634.84;5023089;28;20018;-65
2021/09/02 06:13:52;;;;;;;13.07;7.97;;;;;;;15.36;71.32;101629.56;5023132;28;20022;-64
2021/09/02 06:16:17;;;;;;;12.40;7.75;;;;;;;15.40;70.83;101625.16;5022968;28;20029;-64
2021/09/02 06:18:42;;;;;;;12.85;8.65;;;;;;;15.51;70.85;101641.59;5023056;28;20026;-64
2021/09/02 06:21:08;;;;;;;12.45;7.72;;;;;;;15.59;70.68;101633.72;5023277;28;20030;-65
2021/09/02 06:23:33;;;;;;;14.65;7.68;;;;;;;15.70;70.53;101630.97;5023104;28;20032;-65
2021/09/02 06:25:59;;;;;;;13.68;8.65;;;;;;;15.88;70.53;101640.38;5023230;28;20033;-65
2021/09/02 06:28:24;;;;;;;12.85;8.65;;;;;;;15.97;70.15;101636.81;5023282;28;20042;-65
2021/09/02 06:30:49;;;;;;;15.50;8.68;;;;;;;16.14;69.83;101627.91;5023190;28;20603;-65
2021/09/02 06:33:15;;;;;;;14.82;8.35;;;;;;;16.30;69.33;101626.84;5023068;28;20389;-64
2021/09/02 06:35:41;;;;;;;17.85;9.73;;;;;;;16.53;69.18;101628.28;5022925;28;20359;-65
2021/09/02 06:38:07;;;;;;;14.27;7.85;;;;;;;16.71;68.52;101631.50;5023167;28;20052;-64
2021/09/02 06:40:33;;;;;;;15.55;8.52;;;;;;;16.85;67.93;101623.47;5025055;28;20034;-64
2021/09/02 06:42:59;;;;;;;16.00;8.63;;;;;;;17.09;67.77;101632.72;5026567;28;20390;-65
2021/09/02 06:45:25;;;;;;;12.60;7.78;;;;;;;17.29;67.18;101628.91;5026470;28;20037;-65
2021/09/02 06:47:50;;;;;;;14.80;7.65;;;;;;;17.64;66.32;101633.53;5026545;28;20037;-65
2021/09/02 06:50:16;;;;;;;10.52;7.18;;;;;;;17.99;65.47;101634.63;5026559;28;20517;-65
2021/09/02 06:52:42;;;;;;;13.48;8.25;;;;;;;18.42;64.96;101629.38;5026647;28;20022;-66
2021/09/02 06:55:08;;;;;;;13.68;7.75;;;;;;;18.86;63.75;101626.66;5026606;28;20056;-65
2021/09/02 06:57:34;;;;;;;13.18;8.18;;;;;;;19.28;62.37;101625.66;5026177;28;20561;-65
2021/09/02 07:00:00;;;;;;;12.60;7.05;;;;;;;19.67;61.24;101632.56;5024712;28;20060;-65
2021/09/02 07:02:25;;;;;;;11.45;7.10;;;;;;;19.96;59.29;101635.28;5026189;28;20105;-65
2021/09/02 07:04:51;;;;;;;9.57;5.95;;;;;;;20.31;59.19;101627.28;5026128;28;20112;-66
2021/09/02 07:07:17;;;;;;;10.35;6.85;;;;;;;20.62;57.96;101620.19;5026082;28;20030;-65
2021/09/02 07:09:43;;;;;;;9.63;6.43;;;;;;;20.78;56.81;101624.06;5026143;28;20022;-65
2021/09/02 07:12:08;;;;;;;8.48;5.88;;;;;;;20.93;56.73;101625.38;5025946;28;20527;-66
2021/09/02 07:14:34;;;;;;;9.27;6.45;;;;;;;20.99;55.82;101631.38;5025837;28;20052;-65
2021/09/02 07:16:59;;;;;;;9.88;5.97;;;;;;;21.10;55.68;101631.03;5026061;28;20030;-65
2021/09/02 07:19:26;;;;;;;11.00;6.25;;;;;;;21.17;55.48;101624.59;5025888;28;20089;-66
2021/09/02 07:21:52;;;;;;;13.70;6.75;;;;;;;21.53;55.28;101631.31;5025810;28;20542;-65
2021/09/02 07:24:17;;;;;;;10.07;6.43;;;;;;;21.87;54.26;101619.53;5025890;28;20030;-65
2021/09/02 07:26:42;;;;;;;16.05;6.40;;;;;;;22.35;53.63;101629.25;5025768;28;20052;-65
2021/09/02 07:29:09;;;;;;;12.60;6.22;;;;;;;23.00;52.03;101621.38;5024360;28;20076;-66
2021/09/02 07:31:35;;;;;;;8.88;5.15;;;;;;;23.69;49.94;101628.25;5025644;28;20168;-66
2021/09/02 07:34:01;;;;;;;5.95;4.53;;;;;;;24.17;47.77;101615.47;5025866;28;20098;-66
2021/09/02 07:36:27;;;;;;;9.02;4.05;;;;;;;24.79;46.08;101611.66;5025291;28;20050;-65
2021/09/02 07:38:53;;;;;;;4.80;3.47;;;;;;;25.55;44.25;101614.06;5025374;28;20024;-65
2021/09/02 07:41:18;;;;;;;7.00;3.28;;;;;;;26.19;42.74;101611.53;5025471;28;20041;-65
2021/09/02 07:43:43;;;;;;;4.82;3.00;;;;;;;26.85;41.61;101615.88;5025576;28;20322;-65
2021/09/02 07:46:10;;;;;;;4.43;2.75;;;;;;;26.98;39.57;101618.66;5025462;28;20038;-65
2021/09/02 07:48:35;;;;;;;2.90;2.30;;;;;;;27.18;37.75;101620.16;5025399;28;20109;-64
2021/09/02 07:51:02;;;;;;;3.08;1.85;;;;;;;27.45;35.63;101613.22;5024899;28;20118;-66
2021/09/02 07:53:27;;;;;;;3.80;1.50;;;;;;;27.50;35.28;101626.28;5023922;28;20064;-67
2021/09/02 07:55:52;;;;;;;2.15;1.48;;;;;;;27.36;34.21;101622.66;5024872;28;20022;-66
2021/09/02 07:58:18;;;;;;;3.25;1.80;;;;;;;27.14;34.45;101625.78;5024606;28;20426;-66
2021/09/02 08:00:43;;;;;;;1.90;1.40;;;;;;;27.13;33.45;101626.69;5024590;28;20080;-66
2021/09/02 08:03:09;;;;;;;1.95;1.08;;;;;;;26.97;33.82;101623.13;5024462;28;20061;-66
2021/09/02 08:05:34;;;;;;;8.20;1.65;;;;;;;26.81;33.56;101622.31;5023105;28;20038;-66
2021/09/02 08:07:59;;;;;;;3.55;1.63;;;;;;;26.77;33.14;101626.09;5024536;28;20026;-66
2021/09/02 08:10:26;;;;;;;2.38;1.50;;;;;;;27.09;33.41;101629.56;5024825;28;20464;-66
2021/09/02 08:12:53;;;;;;;3.97;1.90;;;;;;;27.66;33.21;101629.72;5024752;28;20032;-66
2021/09/02 08:15:19;;;;;;;2.50;1.80;;;;;;;28.37;32.85;101618.22;5024730;28;20025;-66
2021/09/02 08:17:45;;;;;;;2.90;1.73;;;;;;;28.89;31.61;101617.53;5024801;28;20470;-66
2021/09/02 08:20:13;;;;;;;5.03;1.80;;;;;;;29.17;29.71;101621.88;5024631;28;20022;-66
2021/09/02 08:22:39;;;;;;;7.72;2.10;;;;;;;29.22;30.05;101624.22;5024756;28;20040;-66
2021/09/02 08:25:07;;;;;;;5.05;1.70;;;;;;;29.40;29.60;101622.09;5024552;28;20488;-65
2021/09/02 08:27:32;;;;;;;2.28;1.30;;;;;;;29.83;28.15;101620.06;5024052;28;20026;-66
2021/09/02 08:29:58;;;;;;;1.77;1.10;;;;;;;30.14;27.85;101619.66;5024000;28;20469;-65
2021/09/02 08:32:23;;;;;;;2.30;1.00;;;;;;;30.48;26.74;101625.22;5024207;28;20053;-66
2021/09/02 08:34:48;;;;;;;1.95;1.27;;;;;;;30.85;26.01;101621.63;5024221;28;20037;-66
2021/09/02 08:37:14;;;;;;;2.58;1.00;;;;;;;31.16;25.88;101621.94;5023879;28;20030;-66
2021/09/02 08:39:39;;;;;;;2.50;1.17;;;;;;;31.34;24.98;101618.81;5022868;28;20026;-66
2021/09/02 08:42:05;;;;;;;1.92;1.27;;;;;;;31.33;25.20;101622.44;5024085;28;20076;-67
2021/09/02 08:44:31;;;;;;;2.17;1.30;;;;;;;31.34;25.00;101615.25;5024109;28;20048;-66
2021/09/02 08:46:56;;;;;;;1.80;1.20;;;;;;;31.29;24.79;101611.13;5024243;28;20022;-66
2021/09/02 08:49:23;;;;;;;1.65;1.00;;;;;;;31.28;25.17;101611.22;5024144;28;20014;-66
2021/09/02 08:51:49;;;;;;;2.03;1.05;;;;;;;31.38;25.34;101614.91;5024284;28;20030;-66
2021/09/02 08:54:15;;;;;;;3.13;1.38;;;;;;;31.59;25.11;101610.66;5024199;28;20030;-65
2021/09/02 08:56:41;;;;;;;1.75;1.13;;;;;;;31.97;24.21;101613.94;5023788;28;20049;-65
2021/09/02 08:59:06;;;;;;;5.05;1.00;;;;;;;32.12;23.53;101603.78;5024142;28;20536;-66
2021/09/02 09:01:32;;;;;;;3.58;1.00;;;;;;;32.30;22.64;101608.59;5023864;28;20037;-66
2021/09/02 09:03:57;;;;;;;2.17;0.73;;;;;;;32.22;22.99;101601.19;5021824;28;20524;-66
2021/09/02 09:06:27;;;;;;;3.85;0.82;;;;;;;32.27;23.35;101605.19;5024044;28;20076;-66
2021/09/02 09:08:53;;;;;;;1.65;0.90;;;;;;;32.42;22.08;101601.34;5024061;28;20022;-66
2021/09/02 09:11:21;;;;;;;1.88;0.90;;;;;;;32.19;22.17;101601.44;5023876;28;20049;-64
2021/09/02 09:13:48;;;;;;;2.53;0.82;;;;;;;32.10;22.23;101601.22;5023779;28;20025;-64
2021/09/02 09:16:13;;;;;;;1.60;0.93;;;;;;;31.89;22.64;101598.41;5023736;28;20048;-65
2021/09/02 09:18:44;;;;;;;1.83;0.70;;;;;;;31.83;22.08;101597.09;5023643;28;20493;-65
2021/09/02 09:21:13;;;;;;;1.25;0.77;;;;;;;31.58;22.58;101600.91;5023696;28;20030;-65
2021/09/02 09:24:04;;;;;;;1.50;0.77;;;;;;;31.49;22.44;101600.66;5023847;28;20030;-65
2021/09/02 09:26:32;;;;;;;1.60;0.88;;;;;;;31.41;22.35;101593.22;5023653;28;20430;-65
2021/09/02 09:28:59;;;;;;;1.10;0.70;;;;;;;31.53;22.20;101596.75;5023569;28;20497;-65
2021/09/02 09:31:26;;;;;;;1.20;0.70;;;;;;;31.56;22.24;101587.59;5023519;28;20061;-65
2021/09/02 09:33:53;;;;;;;0.90;0.55;;;;;;;31.55;22.60;101591.28;5023507;28;20040;-65
2021/09/02 09:36:23;;;;;;;1.23;0.70;;;;;;;31.78;22.33;101601.97;5023425;28;20025;-65
2021/09/02 09:39:00;;;;;;;2.60;0.73;;;;;;;32.19;22.74;101601.44;5023437;28;20014;-65
2021/09/02 09:41:32;;;;;;;1.10;0.70;;;;;;;32.55;21.61;101585.94;5023200;28;20018;-66
2021/09/02 09:44:20;;;;;;;;;;;;;;;32.44;21.96;101586.81;5023668;28;20030;-64
2021/09/02 09:47:18;;;;;;;2.42;0.93;;;;;;;32.36;21.43;101579.41;5015118;28;20355;-65
2021/09/02 09:49:54;;;;;;;1.05;0.70;;;;;;;32.33;21.91;101576.97;5022857;28;20038;-65
2021/09/02 09:52:35;;;;;;;1.85;1.02;;;;;;;32.24;21.92;101583.94;5023315;28;20038;-65
2021/09/02 09:55:03;;;;;;;1.63;1.02;;;;;;;32.42;22.29;101571.78;5023308;28;20025;-66
2021/09/02 09:57:31;;;;;;;1.83;1.08;;;;;;;32.67;21.27;101577.81;5022968;28;20106;-66
2021/09/02 10:00:00;;;;;;;1.40;0.90;;;;;;;32.54;20.82;101573.50;5023073;28;20113;-65
2021/09/02 10:02:26;;;;;;;1.70;0.50;;;;;;;32.18;20.97;101572.84;5021643;28;20496;-65
2021/09/02 10:04:53;;;;;;;0.98;0.60;;;;;;;31.83;21.07;101577.44;5023272;28;20030;-65
2021/09/02 10:07:20;;;;;;;1.38;0.80;;;;;;;31.60;21.95;101575.63;5023084;28;20099;-65
2021/09/02 10:09:45;;;;;;;2.17;0.80;;;;;;;31.85;21.70;101573.66;5023223;28;20060;-66
2021/09/02 10:12:12;;;;;;;1.05;0.75;;;;;;;31.97;21.17;101574.50;5022847;28;20026;-65
2021/09/02 10:14:38;;;;;;;2.40;0.80;;;;;;;31.69;21.00;101568.69;5023629;28;20030;-66
2021/09/02 10:17:03;;;;;;;1.55;0.80;;;;;;;31.36;21.70;101563.19;5027060;28;20037;-66
2021/09/02 10:19:31;;;;;;;1.10;0.60;;;;;;;31.42;21.34;101568.09;5026968;28;20045;-65
2021/09/02 10:21:57;;;;;;;2.17;1.10;;;;;;;31.15;22.05;101563.91;5027121;28;20025;-65
2021/09/02 10:24:35;;;;;;;1.42;0.90;;;;;;;31.19;22.47;101556.47;5026837;28;20442;-66
2021/09/02 10:27:01;;;;;;;1.40;0.98;;;;;;;31.08;22.63;101560.00;5027070;28;20048;-65
2021/09/02 10:29:36;;;;;;;1.10;0.55;;;;;;;31.06;22.35;101563.78;5026765;28;20025;-65
2021/09/02 10:32:26;;;;;;;3.55;0.82;;;;;;;30.81;22.98;101561.19;5026804;28;20029;-66
2021/09/02 10:35:15;;;;;;;1.45;0.98;;;;;;;30.72;23.55;101560.00;5027009;28;20036;-65
2021/09/02 10:37:41;;;;;;;1.52;0.90;;;;;;;30.72;22.76;101554.66;5026546;28;20030;-65
2021/09/02 10:40:15;;;;;;;1.80;0.88;;;;;;;30.76;23.27;101549.91;5026594;28;20026;-66
2021/09/02 10:42:43;;;;;;;1.63;1.10;;;;;;;30.65;23.38;101551.63;5026458;28;20357;-65
2021/09/02 10:45:30;;;;;;;3.00;1.73;;;;;;;30.71;23.90;101544.06;5026474;28;20128;-66
2021/09/02 10:48:14;;;;;;;1.67;0.90;;;;;;;30.66;23.26;101541.72;5026873;28;20029;-65
2021/09/02 10:50:42;;;;;;;1.40;0.73;;;;;;;30.33;23.85;101535.28;5026470;28;20333;-66
2021/09/02 10:53:17;;;;;;;1.35;0.77;;;;;;;29.88;23.56;101542.97;5026449;28;20026;-65
2021/09/02 10:55:51;;;;;;;2.17;1.00;;;;;;;29.59;24.61;101537.91;5026284;28;20026;-65
2021/09/02 10:58:46;;;;;;;2.08;1.10;;;;;;;29.72;24.44;101534.34;5024583;28;20065;-65
2021/09/02 11:01:41;;;;;;;2.80;1.13;;;;;;;29.08;25.34;101536.97;5026167;28;20049;-65
2021/09/02 11:04:12;;;;;;;2.10;1.27;;;;;;;28.90;25.65;101539.09;5024362;28;20047;-65
2021/09/02 11:06:50;;;;;;;2.28;1.35;;;;;;;28.92;26.17;101527.31;5026086;28;20596;-65
2021/09/02 11:09:29;;;;;;;2.78;1.15;;;;;;;29.24;25.75;101522.53;5026168;28;20025;-65
2021/09/02 11:11:55;;;;;;;2.85;1.27;;;;;;;29.53;24.85;101519.59;5025823;28;20101;-64
2021/09/02 11:14:21;;;;;;;2.22;0.98;;;;;;;29.59;24.52;101519.19;5025819;28;20033;-65
2021/09/02 11:16:47;;;;;;;3.30;1.30;;;;;;;29.57;25.17;101521.06;5025876;28;20032;-65
2021/09/02 11:19:12;;;;;;;2.92;1.30;;;;;;;29.54;24.84;101514.13;5025727;28;20049;-65